You are not logged in, Click here to log in
ICAO: RJFF Country: 日本福岡縣福岡市博多區
Latitude: 33.5903 Longitude: 130.447
Total Arrivals: 140 Total Departures: 125
Latest Arrival: NU62 (ROAH-RJFF)LI WEN. Tu Latest Departure: 5KGK8 (RJFF-RJAA)LI WEN. Tu
Scenery:
METAR : RJFF 241100Z 21005KT 120V270 CAVOK 26/09 Q1013 NOSIG

福岡空港/板付機場 FUK